sensor_id;sensor_type;location;lat;lon;timestamp;P1;durP1;ratioP1;P2;durP2;ratioP2
62929;SDS011;49036;42.782;23.108;2022-10-16T00:01:18;18.67;;;9.43;;
62929;SDS011;49036;42.782;23.108;2022-10-16T00:03:45;15.63;;;8.15;;
62929;SDS011;49036;42.782;23.108;2022-10-16T00:06:12;15.82;;;8.23;;
62929;SDS011;49036;42.782;23.108;2022-10-16T00:08:38;13.27;;;8.23;;
62929;SDS011;49036;42.782;23.108;2022-10-16T00:13:38;22.42;;;9.13;;
62929;SDS011;49036;42.782;23.108;2022-10-16T00:16:06;15.82;;;8.35;;
62929;SDS011;49036;42.782;23.108;2022-10-16T00:18:33;21.90;;;10.60;;
62929;SDS011;49036;42.782;23.108;2022-10-16T00:21:03;25.63;;;10.45;;
62929;SDS011;49036;42.782;23.108;2022-10-16T00:23:30;13.15;;;8.82;;
62929;SDS011;49036;42.782;23.108;2022-10-16T00:28:23;22.25;;;9.48;;
62929;SDS011;49036;42.782;23.108;2022-10-16T00:30:49;19.45;;;9.40;;
62929;SDS011;49036;42.782;23.108;2022-10-16T00:33:14;16.13;;;8.63;;
62929;SDS011;49036;42.782;23.108;2022-10-16T00:35:40;14.90;;;9.05;;
62929;SDS011;49036;42.782;23.108;2022-10-16T00:38:05;27.70;;;11.18;;
62929;SDS011;49036;42.782;23.108;2022-10-16T00:40:31;22.90;;;10.65;;
62929;SDS011;49036;42.782;23.108;2022-10-16T00:42:56;19.88;;;10.40;;
62929;SDS011;49036;42.782;23.108;2022-10-16T00:45:22;17.48;;;9.85;;
62929;SDS011;49036;42.782;23.108;2022-10-16T00:47:48;15.85;;;9.80;;
62929;SDS011;49036;42.782;23.108;2022-10-16T00:50:27;19.27;;;13.10;;
62929;SDS011;49036;42.782;23.108;2022-10-16T00:52:56;14.10;;;9.45;;
62929;SDS011;49036;42.782;23.108;2022-10-16T00:55:22;19.13;;;8.60;;
62929;SDS011;49036;42.782;23.108;2022-10-16T00:57:49;12.13;;;6.68;;
62929;SDS011;49036;42.782;23.108;2022-10-16T01:00:19;15.35;;;8.15;;
62929;SDS011;49036;42.782;23.108;2022-10-16T01:02:57;14.45;;;8.27;;
62929;SDS011;49036;42.782;23.108;2022-10-16T01:05:33;14.63;;;8.77;;
62929;SDS011;49036;42.782;23.108;2022-10-16T01:08:15;20.38;;;10.27;;
62929;SDS011;49036;42.782;23.108;2022-10-16T01:11:14;27.63;;;9.55;;
62929;SDS011;49036;42.782;23.108;2022-10-16T01:13:58;10.98;;;7.72;;
62929;SDS011;49036;42.782;23.108;2022-10-16T01:16:34;13.27;;;8.00;;
62929;SDS011;49036;42.782;23.108;2022-10-16T01:19:13;15.55;;;7.68;;
62929;SDS011;49036;42.782;23.108;2022-10-16T01:21:51;15.68;;;8.43;;
62929;SDS011;49036;42.782;23.108;2022-10-16T01:27:16;28.23;;;11.48;;
62929;SDS011;49036;42.782;23.108;2022-10-16T01:35:03;13.18;;;8.27;;
62929;SDS011;49036;42.782;23.108;2022-10-16T01:40:02;16.13;;;8.98;;
62929;SDS011;49036;42.782;23.108;2022-10-16T01:42:36;24.55;;;10.32;;
62929;SDS011;49036;42.782;23.108;2022-10-16T01:45:07;30.10;;;11.18;;
62929;SDS011;49036;42.782;23.108;2022-10-16T01:47:36;16.48;;;9.75;;
62929;SDS011;49036;42.782;23.108;2022-10-16T01:50:04;13.93;;;8.10;;
62929;SDS011;49036;42.782;23.108;2022-10-16T01:52:30;15.93;;;9.45;;
62929;SDS011;49036;42.782;23.108;2022-10-16T01:54:59;16.67;;;9.35;;
62929;SDS011;49036;42.782;23.108;2022-10-16T01:57:27;19.60;;;10.82;;
62929;SDS011;49036;42.782;23.108;2022-10-16T01:59:56;20.25;;;11.18;;
62929;SDS011;49036;42.782;23.108;2022-10-16T02:02:26;24.00;;;10.75;;
62929;SDS011;49036;42.782;23.108;2022-10-16T02:04:59;20.33;;;11.18;;
62929;SDS011;49036;42.782;23.108;2022-10-16T02:07:48;22.15;;;10.57;;
62929;SDS011;49036;42.782;23.108;2022-10-16T02:10:14;23.95;;;11.60;;
62929;SDS011;49036;42.782;23.108;2022-10-16T02:12:42;23.20;;;10.35;;
62929;SDS011;49036;42.782;23.108;2022-10-16T02:15:13;22.88;;;11.20;;
62929;SDS011;49036;42.782;23.108;2022-10-16T02:17:38;21.33;;;9.65;;
62929;SDS011;49036;42.782;23.108;2022-10-16T02:20:04;19.75;;;10.52;;
62929;SDS011;49036;42.782;23.108;2022-10-16T02:22:38;26.20;;;10.93;;
62929;SDS011;49036;42.782;23.108;2022-10-16T02:25:06;15.88;;;9.05;;
62929;SDS011;49036;42.782;23.108;2022-10-16T02:27:43;15.25;;;8.35;;
62929;SDS011;49036;42.782;23.108;2022-10-16T02:30:33;22.50;;;10.65;;
62929;SDS011;49036;42.782;23.108;2022-10-16T02:33:03;25.77;;;11.43;;
62929;SDS011;49036;42.782;23.108;2022-10-16T02:35:31;33.42;;;13.40;;
62929;SDS011;49036;42.782;23.108;2022-10-16T02:37:57;25.90;;;10.77;;
62929;SDS011;49036;42.782;23.108;2022-10-16T02:40:24;26.63;;;10.20;;
62929;SDS011;49036;42.782;23.108;2022-10-16T02:42:51;15.18;;;8.98;;
62929;SDS011;49036;42.782;23.108;2022-10-16T02:45:18;20.45;;;9.23;;
62929;SDS011;49036;42.782;23.108;2022-10-16T02:47:44;25.63;;;10.70;;
62929;SDS011;49036;42.782;23.108;2022-10-16T02:50:09;37.63;;;13.43;;
62929;SDS011;49036;42.782;23.108;2022-10-16T02:52:35;20.55;;;10.70;;
62929;SDS011;49036;42.782;23.108;2022-10-16T02:55:00;17.55;;;9.52;;
62929;SDS011;49036;42.782;23.108;2022-10-16T02:57:26;14.02;;;9.57;;
62929;SDS011;49036;42.782;23.108;2022-10-16T02:59:52;23.45;;;10.38;;
62929;SDS011;49036;42.782;23.108;2022-10-16T03:02:17;18.13;;;11.00;;
62929;SDS011;49036;42.782;23.108;2022-10-16T03:04:43;12.48;;;7.30;;
62929;SDS011;49036;42.782;23.108;2022-10-16T03:07:08;17.92;;;7.68;;
62929;SDS011;49036;42.782;23.108;2022-10-16T03:09:34;17.83;;;8.80;;
62929;SDS011;49036;42.782;23.108;2022-10-16T03:11:59;23.90;;;11.27;;
62929;SDS011;49036;42.782;23.108;2022-10-16T03:14:25;31.00;;;11.73;;
62929;SDS011;49036;42.782;23.108;2022-10-16T03:16:50;43.22;;;15.07;;
62929;SDS011;49036;42.782;23.108;2022-10-16T03:19:16;43.38;;;17.50;;
62929;SDS011;49036;42.782;23.108;2022-10-16T03:21:42;44.53;;;16.73;;
62929;SDS011;49036;42.782;23.108;2022-10-16T03:24:08;44.35;;;16.38;;
62929;SDS011;49036;42.782;23.108;2022-10-16T03:26:34;38.25;;;14.25;;
62929;SDS011;49036;42.782;23.108;2022-10-16T03:28:59;34.92;;;15.00;;
62929;SDS011;49036;42.782;23.108;2022-10-16T03:31:25;25.83;;;12.70;;
62929;SDS011;49036;42.782;23.108;2022-10-16T03:33:50;29.38;;;13.02;;
62929;SDS011;49036;42.782;23.108;2022-10-16T03:36:16;29.85;;;14.10;;
62929;SDS011;49036;42.782;23.108;2022-10-16T03:38:41;30.00;;;11.70;;
62929;SDS011;49036;42.782;23.108;2022-10-16T03:41:07;33.08;;;12.82;;
62929;SDS011;49036;42.782;23.108;2022-10-16T03:43:33;24.38;;;11.73;;
62929;SDS011;49036;42.782;23.108;2022-10-16T03:45:59;27.40;;;11.75;;
62929;SDS011;49036;42.782;23.108;2022-10-16T03:48:24;22.88;;;11.57;;
62929;SDS011;49036;42.782;23.108;2022-10-16T03:50:50;25.40;;;12.23;;
62929;SDS011;49036;42.782;23.108;2022-10-16T03:53:16;21.10;;;11.27;;
62929;SDS011;49036;42.782;23.108;2022-10-16T03:55:42;23.80;;;11.60;;
62929;SDS011;49036;42.782;23.108;2022-10-16T03:58:08;25.42;;;11.38;;
62929;SDS011;49036;42.782;23.108;2022-10-16T04:00:34;22.85;;;12.50;;
62929;SDS011;49036;42.782;23.108;2022-10-16T04:03:00;23.50;;;11.95;;
62929;SDS011;49036;42.782;23.108;2022-10-16T04:05:25;21.08;;;10.98;;
62929;SDS011;49036;42.782;23.108;2022-10-16T04:07:51;26.50;;;12.20;;
62929;SDS011;49036;42.782;23.108;2022-10-16T04:10:17;21.10;;;10.98;;
62929;SDS011;49036;42.782;23.108;2022-10-16T04:12:44;15.77;;;9.25;;
62929;SDS011;49036;42.782;23.108;2022-10-16T04:15:09;15.88;;;8.80;;
62929;SDS011;49036;42.782;23.108;2022-10-16T04:17:35;18.67;;;8.05;;
62929;SDS011;49036;42.782;23.108;2022-10-16T04:20:00;17.70;;;6.97;;
62929;SDS011;49036;42.782;23.108;2022-10-16T04:22:26;15.00;;;8.73;;
62929;SDS011;49036;42.782;23.108;2022-10-16T04:24:51;25.73;;;10.63;;
62929;SDS011;49036;42.782;23.108;2022-10-16T04:27:17;32.42;;;11.65;;
62929;SDS011;49036;42.782;23.108;2022-10-16T04:29:42;40.92;;;14.60;;
62929;SDS011;49036;42.782;23.108;2022-10-16T04:32:11;43.30;;;14.45;;
62929;SDS011;49036;42.782;23.108;2022-10-16T04:34:38;36.63;;;14.43;;
62929;SDS011;49036;42.782;23.108;2022-10-16T04:37:04;47.72;;;14.90;;
62929;SDS011;49036;42.782;23.108;2022-10-16T04:39:30;45.75;;;16.85;;
62929;SDS011;49036;42.782;23.108;2022-10-16T04:41:56;49.97;;;17.60;;
62929;SDS011;49036;42.782;23.108;2022-10-16T04:44:21;50.63;;;17.77;;
62929;SDS011;49036;42.782;23.108;2022-10-16T04:46:47;41.53;;;14.50;;
62929;SDS011;49036;42.782;23.108;2022-10-16T04:49:15;35.35;;;13.57;;
62929;SDS011;49036;42.782;23.108;2022-10-16T04:51:40;45.08;;;16.13;;
62929;SDS011;49036;42.782;23.108;2022-10-16T04:54:06;38.13;;;15.50;;
62929;SDS011;49036;42.782;23.108;2022-10-16T04:56:31;32.97;;;15.35;;
62929;SDS011;49036;42.782;23.108;2022-10-16T04:58:57;25.98;;;13.35;;
62929;SDS011;49036;42.782;23.108;2022-10-16T05:01:23;41.38;;;14.57;;
62929;SDS011;49036;42.782;23.108;2022-10-16T05:03:48;65.22;;;21.10;;
62929;SDS011;49036;42.782;23.108;2022-10-16T05:06:14;67.65;;;20.13;;
62929;SDS011;49036;42.782;23.108;2022-10-16T05:08:39;77.28;;;20.52;;
62929;SDS011;49036;42.782;23.108;2022-10-16T05:11:04;94.85;;;24.40;;
62929;SDS011;49036;42.782;23.108;2022-10-16T05:13:30;98.68;;;25.42;;
62929;SDS011;49036;42.782;23.108;2022-10-16T05:15:56;94.95;;;25.67;;
62929;SDS011;49036;42.782;23.108;2022-10-16T05:18:22;90.85;;;27.25;;
62929;SDS011;49036;42.782;23.108;2022-10-16T05:20:47;99.15;;;28.40;;
62929;SDS011;49036;42.782;23.108;2022-10-16T05:23:13;84.22;;;25.08;;
62929;SDS011;49036;42.782;23.108;2022-10-16T05:25:38;91.35;;;26.73;;
62929;SDS011;49036;42.782;23.108;2022-10-16T05:28:04;84.57;;;23.42;;
62929;SDS011;49036;42.782;23.108;2022-10-16T05:30:29;70.95;;;26.23;;
62929;SDS011;49036;42.782;23.108;2022-10-16T05:32:55;76.78;;;34.80;;
62929;SDS011;49036;42.782;23.108;2022-10-16T05:35:20;61.10;;;25.13;;
62929;SDS011;49036;42.782;23.108;2022-10-16T05:37:46;30.27;;;14.93;;
62929;SDS011;49036;42.782;23.108;2022-10-16T05:40:13;22.85;;;11.98;;
62929;SDS011;49036;42.782;23.108;2022-10-16T05:42:40;15.35;;;9.80;;
62929;SDS011;49036;42.782;23.108;2022-10-16T05:47:31;14.82;;;8.10;;
62929;SDS011;49036;42.782;23.108;2022-10-16T05:49:57;14.00;;;8.00;;
62929;SDS011;49036;42.782;23.108;2022-10-16T05:52:23;10.75;;;7.75;;
62929;SDS011;49036;42.782;23.108;2022-10-16T05:54:48;13.55;;;8.27;;
62929;SDS011;49036;42.782;23.108;2022-10-16T05:57:14;14.57;;;7.88;;
62929;SDS011;49036;42.782;23.108;2022-10-16T05:59:40;11.30;;;7.03;;
62929;SDS011;49036;42.782;23.108;2022-10-16T06:02:05;9.50;;;6.72;;
62929;SDS011;49036;42.782;23.108;2022-10-16T06:04:31;8.75;;;5.88;;
62929;SDS011;49036;42.782;23.108;2022-10-16T06:06:59;11.63;;;6.68;;
62929;SDS011;49036;42.782;23.108;2022-10-16T06:09:27;8.10;;;5.72;;
62929;SDS011;49036;42.782;23.108;2022-10-16T06:11:53;10.38;;;7.22;;
62929;SDS011;49036;42.782;23.108;2022-10-16T06:14:18;10.00;;;6.15;;
62929;SDS011;49036;42.782;23.108;2022-10-16T06:16:44;10.75;;;6.60;;
62929;SDS011;49036;42.782;23.108;2022-10-16T06:21:35;7.07;;;5.50;;
62929;SDS011;49036;42.782;23.108;2022-10-16T06:26:27;8.30;;;5.90;;
62929;SDS011;49036;42.782;23.108;2022-10-16T06:28:55;10.63;;;6.28;;
62929;SDS011;49036;42.782;23.108;2022-10-16T06:31:21;11.82;;;6.53;;
62929;SDS011;49036;42.782;23.108;2022-10-16T06:33:49;15.05;;;6.43;;
62929;SDS011;49036;42.782;23.108;2022-10-16T06:36:16;11.80;;;5.68;;
62929;SDS011;49036;42.782;23.108;2022-10-16T06:38:43;10.43;;;5.95;;
62929;SDS011;49036;42.782;23.108;2022-10-16T06:41:13;7.22;;;6.20;;
62929;SDS011;49036;42.782;23.108;2022-10-16T06:43:40;13.57;;;6.20;;
62929;SDS011;49036;42.782;23.108;2022-10-16T06:46:06;10.45;;;6.38;;
62929;SDS011;49036;42.782;23.108;2022-10-16T06:48:34;12.05;;;6.47;;
62929;SDS011;49036;42.782;23.108;2022-10-16T06:51:06;10.48;;;6.35;;
62929;SDS011;49036;42.782;23.108;2022-10-16T06:53:35;8.95;;;6.63;;
62929;SDS011;49036;42.782;23.108;2022-10-16T06:58:47;8.82;;;5.93;;
62929;SDS011;49036;42.782;23.108;2022-10-16T07:01:13;7.75;;;5.82;;
62929;SDS011;49036;42.782;23.108;2022-10-16T07:03:41;7.97;;;5.80;;
62929;SDS011;49036;42.782;23.108;2022-10-16T07:06:08;7.93;;;5.70;;
62929;SDS011;49036;42.782;23.108;2022-10-16T07:08:36;8.20;;;6.07;;
62929;SDS011;49036;42.782;23.108;2022-10-16T07:11:04;16.77;;;7.45;;
62929;SDS011;49036;42.782;23.108;2022-10-16T07:13:35;13.00;;;5.60;;
62929;SDS011;49036;42.782;23.108;2022-10-16T07:16:09;11.65;;;6.60;;
62929;SDS011;49036;42.782;23.108;2022-10-16T07:18:35;10.82;;;6.38;;
62929;SDS011;49036;42.782;23.108;2022-10-16T07:21:08;7.72;;;6.53;;
62929;SDS011;49036;42.782;23.108;2022-10-16T07:23:36;11.70;;;6.53;;
62929;SDS011;49036;42.782;23.108;2022-10-16T07:26:02;12.77;;;6.55;;
62929;SDS011;49036;42.782;23.108;2022-10-16T07:28:28;9.80;;;5.53;;
62929;SDS011;49036;42.782;23.108;2022-10-16T07:33:21;5.18;;;4.53;;
62929;SDS011;49036;42.782;23.108;2022-10-16T07:35:50;8.95;;;5.53;;
62929;SDS011;49036;42.782;23.108;2022-10-16T07:38:17;9.20;;;5.07;;
62929;SDS011;49036;42.782;23.108;2022-10-16T07:43:08;7.03;;;4.85;;
62929;SDS011;49036;42.782;23.108;2022-10-16T07:47:59;4.93;;;4.37;;
62929;SDS011;49036;42.782;23.108;2022-10-16T07:52:50;7.67;;;4.80;;
62929;SDS011;49036;42.782;23.108;2022-10-16T07:57:41;8.75;;;4.93;;
62929;SDS011;49036;42.782;23.108;2022-10-16T08:00:06;6.78;;;4.78;;
62929;SDS011;49036;42.782;23.108;2022-10-16T08:02:38;7.82;;;5.80;;
62929;SDS011;49036;42.782;23.108;2022-10-16T08:05:04;6.38;;;5.40;;
62929;SDS011;49036;42.782;23.108;2022-10-16T08:07:30;6.63;;;4.75;;
62929;SDS011;49036;42.782;23.108;2022-10-16T08:09:56;6.53;;;5.03;;
62929;SDS011;49036;42.782;23.108;2022-10-16T08:12:23;6.13;;;4.75;;
62929;SDS011;49036;42.782;23.108;2022-10-16T08:14:48;7.72;;;5.18;;
62929;SDS011;49036;42.782;23.108;2022-10-16T08:17:14;7.25;;;4.85;;
62929;SDS011;49036;42.782;23.108;2022-10-16T08:19:43;9.57;;;4.43;;
62929;SDS011;49036;42.782;23.108;2022-10-16T08:22:10;7.65;;;4.32;;
62929;SDS011;49036;42.782;23.108;2022-10-16T08:24:35;8.75;;;4.95;;
62929;SDS011;49036;42.782;23.108;2022-10-16T08:27:02;8.05;;;4.50;;
62929;SDS011;49036;42.782;23.108;2022-10-16T08:29:28;7.88;;;4.85;;
62929;SDS011;49036;42.782;23.108;2022-10-16T08:31:53;6.70;;;3.75;;
62929;SDS011;49036;42.782;23.108;2022-10-16T08:34:19;8.15;;;4.10;;
62929;SDS011;49036;42.782;23.108;2022-10-16T08:36:44;5.28;;;3.47;;
62929;SDS011;49036;42.782;23.108;2022-10-16T08:39:10;6.00;;;4.40;;
62929;SDS011;49036;42.782;23.108;2022-10-16T08:49:37;6.43;;;4.05;;
62929;SDS011;49036;42.782;23.108;2022-10-16T08:52:10;8.60;;;5.10;;
62929;SDS011;49036;42.782;23.108;2022-10-16T08:54:41;8.20;;;4.95;;
62929;SDS011;49036;42.782;23.108;2022-10-16T08:57:14;6.45;;;3.17;;
62929;SDS011;49036;42.782;23.108;2022-10-16T08:59:44;7.10;;;4.45;;
62929;SDS011;49036;42.782;23.108;2022-10-16T09:06:53;5.18;;;3.05;;
62929;SDS011;49036;42.782;23.108;2022-10-16T09:18:01;8.02;;;4.25;;
62929;SDS011;49036;42.782;23.108;2022-10-16T09:21:45;3.70;;;3.08;;
62929;SDS011;49036;42.782;23.108;2022-10-16T09:24:16;7.35;;;4.10;;
62929;SDS011;49036;42.782;23.108;2022-10-16T09:26:42;8.02;;;3.45;;
62929;SDS011;49036;42.782;23.108;2022-10-16T09:29:10;7.90;;;3.47;;
62929;SDS011;49036;42.782;23.108;2022-10-16T09:31:41;4.60;;;3.17;;
62929;SDS011;49036;42.782;23.108;2022-10-16T09:34:08;5.20;;;3.10;;
62929;SDS011;49036;42.782;23.108;2022-10-16T09:36:51;3.97;;;2.97;;
62929;SDS011;49036;42.782;23.108;2022-10-16T09:39:17;4.15;;;2.85;;
62929;SDS011;49036;42.782;23.108;2022-10-16T09:41:43;6.18;;;3.97;;
62929;SDS011;49036;42.782;23.108;2022-10-16T09:47:00;7.30;;;3.60;;
62929;SDS011;49036;42.782;23.108;2022-10-16T09:52:20;5.05;;;3.00;;
62929;SDS011;49036;42.782;23.108;2022-10-16T09:54:52;4.60;;;2.90;;
62929;SDS011;49036;42.782;23.108;2022-10-16T09:57:21;7.28;;;2.80;;
62929;SDS011;49036;42.782;23.108;2022-10-16T09:59:48;4.15;;;2.50;;
62929;SDS011;49036;42.782;23.108;2022-10-16T10:02:30;7.57;;;2.83;;
62929;SDS011;49036;42.782;23.108;2022-10-16T10:04:59;6.32;;;3.53;;
62929;SDS011;49036;42.782;23.108;2022-10-16T10:07:26;4.63;;;3.08;;
62929;SDS011;49036;42.782;23.108;2022-10-16T10:09:58;7.88;;;2.83;;
62929;SDS011;49036;42.782;23.108;2022-10-16T10:12:26;4.55;;;2.65;;
62929;SDS011;49036;42.782;23.108;2022-10-16T10:14:53;3.30;;;2.67;;
62929;SDS011;49036;42.782;23.108;2022-10-16T10:17:22;3.38;;;2.72;;
62929;SDS011;49036;42.782;23.108;2022-10-16T10:19:59;3.40;;;2.75;;
62929;SDS011;49036;42.782;23.108;2022-10-16T10:25:12;3.67;;;2.33;;
62929;SDS011;49036;42.782;23.108;2022-10-16T10:40:34;4.45;;;2.53;;
62929;SDS011;49036;42.782;23.108;2022-10-16T10:45:46;3.55;;;2.33;;
62929;SDS011;49036;42.782;23.108;2022-10-16T10:48:41;3.08;;;2.30;;
62929;SDS011;49036;42.782;23.108;2022-10-16T10:51:15;3.42;;;2.15;;
62929;SDS011;49036;42.782;23.108;2022-10-16T10:54:11;2.72;;;2.17;;
62929;SDS011;49036;42.782;23.108;2022-10-16T10:56:47;3.53;;;2.72;;
62929;SDS011;49036;42.782;23.108;2022-10-16T11:05:11;4.88;;;2.50;;
62929;SDS011;49036;42.782;23.108;2022-10-16T11:07:45;3.30;;;2.38;;
62929;SDS011;49036;42.782;23.108;2022-10-16T11:10:24;3.25;;;2.38;;
62929;SDS011;49036;42.782;23.108;2022-10-16T11:12:55;4.75;;;2.53;;
62929;SDS011;49036;42.782;23.108;2022-10-16T11:15:35;2.33;;;2.13;;
62929;SDS011;49036;42.782;23.108;2022-10-16T11:23:44;4.00;;;2.58;;
62929;SDS011;49036;42.782;23.108;2022-10-16T11:26:10;6.68;;;2.35;;
62929;SDS011;49036;42.782;23.108;2022-10-16T11:28:50;4.78;;;2.80;;
62929;SDS011;49036;42.782;23.108;2022-10-16T11:31:23;3.97;;;2.30;;
62929;SDS011;49036;42.782;23.108;2022-10-16T11:36:44;2.30;;;2.10;;
62929;SDS011;49036;42.782;23.108;2022-10-16T11:39:20;3.05;;;1.90;;
62929;SDS011;49036;42.782;23.108;2022-10-16T11:41:54;1.80;;;1.65;;
62929;SDS011;49036;42.782;23.108;2022-10-16T11:50:50;2.67;;;1.95;;
62929;SDS011;49036;42.782;23.108;2022-10-16T11:56:04;3.20;;;2.17;;
62929;SDS011;49036;42.782;23.108;2022-10-16T11:58:31;2.42;;;2.03;;
62929;SDS011;49036;42.782;23.108;2022-10-16T12:03:35;3.13;;;1.70;;
62929;SDS011;49036;42.782;23.108;2022-10-16T12:08:50;2.42;;;1.90;;
62929;SDS011;49036;42.782;23.108;2022-10-16T12:18:39;6.38;;;1.92;;
62929;SDS011;49036;42.782;23.108;2022-10-16T12:21:10;3.72;;;2.20;;
62929;SDS011;49036;42.782;23.108;2022-10-16T12:23:45;2.47;;;1.75;;
62929;SDS011;49036;42.782;23.108;2022-10-16T12:26:11;2.85;;;1.90;;
62929;SDS011;49036;42.782;23.108;2022-10-16T12:28:37;6.25;;;2.83;;
62929;SDS011;49036;42.782;23.108;2022-10-16T12:31:07;2.55;;;1.60;;
62929;SDS011;49036;42.782;23.108;2022-10-16T12:33:41;2.85;;;1.90;;
62929;SDS011;49036;42.782;23.108;2022-10-16T12:36:26;3.20;;;2.00;;
62929;SDS011;49036;42.782;23.108;2022-10-16T12:38:57;2.83;;;1.98;;
62929;SDS011;49036;42.782;23.108;2022-10-16T12:42:35;3.20;;;2.40;;
62929;SDS011;49036;42.782;23.108;2022-10-16T12:45:01;4.47;;;2.20;;
62929;SDS011;49036;42.782;23.108;2022-10-16T12:47:46;3.45;;;1.95;;
62929;SDS011;49036;42.782;23.108;2022-10-16T12:50:26;5.22;;;1.98;;
62929;SDS011;49036;42.782;23.108;2022-10-16T12:52:57;3.20;;;2.15;;
62929;SDS011;49036;42.782;23.108;2022-10-16T12:55:24;3.38;;;2.13;;
62929;SDS011;49036;42.782;23.108;2022-10-16T13:00:57;2.38;;;2.17;;
62929;SDS011;49036;42.782;23.108;2022-10-16T13:05:11;3.17;;;2.17;;
62929;SDS011;49036;42.782;23.108;2022-10-16T13:16:01;2.42;;;2.03;;
62929;SDS011;49036;42.782;23.108;2022-10-16T13:29:41;10.45;;;2.47;;
62929;SDS011;49036;42.782;23.108;2022-10-16T13:32:08;4.03;;;1.90;;
62929;SDS011;49036;42.782;23.108;2022-10-16T13:34:43;2.10;;;1.67;;
62929;SDS011;49036;42.782;23.108;2022-10-16T13:37:17;1.30;;;1.20;;
62929;SDS011;49036;42.782;23.108;2022-10-16T13:39:47;4.10;;;1.70;;
62929;SDS011;49036;42.782;23.108;2022-10-16T13:44:51;1.88;;;1.77;;
62929;SDS011;49036;42.782;23.108;2022-10-16T13:47:27;3.05;;;1.38;;
62929;SDS011;49036;42.782;23.108;2022-10-16T13:50:01;2.05;;;1.63;;
62929;SDS011;49036;42.782;23.108;2022-10-16T13:52:31;2.63;;;1.70;;
62929;SDS011;49036;42.782;23.108;2022-10-16T13:54:57;2.13;;;1.60;;
62929;SDS011;49036;42.782;23.108;2022-10-16T13:57:23;2.22;;;1.73;;
62929;SDS011;49036;42.782;23.108;2022-10-16T13:59:50;2.05;;;1.63;;
62929;SDS011;49036;42.782;23.108;2022-10-16T14:03:59;1.50;;;1.40;;
62929;SDS011;49036;42.782;23.108;2022-10-16T14:06:30;2.25;;;1.33;;
62929;SDS011;49036;42.782;23.108;2022-10-16T14:09:14;1.90;;;1.70;;
62929;SDS011;49036;42.782;23.108;2022-10-16T14:11:58;4.55;;;2.03;;
62929;SDS011;49036;42.782;23.108;2022-10-16T14:14:39;1.75;;;1.40;;
62929;SDS011;49036;42.782;23.108;2022-10-16T14:17:14;1.83;;;1.50;;
62929;SDS011;49036;42.782;23.108;2022-10-16T14:19:45;2.35;;;1.30;;
62929;SDS011;49036;42.782;23.108;2022-10-16T14:22:26;1.45;;;1.33;;
62929;SDS011;49036;42.782;23.108;2022-10-16T14:24:57;1.90;;;1.48;;
62929;SDS011;49036;42.782;23.108;2022-10-16T14:27:26;4.13;;;1.80;;
62929;SDS011;49036;42.782;23.108;2022-10-16T14:30:31;3.13;;;2.42;;
62929;SDS011;49036;42.782;23.108;2022-10-16T14:36:05;8.73;;;2.10;;
62929;SDS011;49036;42.782;23.108;2022-10-16T14:38:35;3.22;;;1.80;;
62929;SDS011;49036;42.782;23.108;2022-10-16T14:41:03;2.50;;;1.90;;
62929;SDS011;49036;42.782;23.108;2022-10-16T14:43:31;2.13;;;1.90;;
62929;SDS011;49036;42.782;23.108;2022-10-16T14:45:59;2.50;;;1.95;;
62929;SDS011;49036;42.782;23.108;2022-10-16T14:48:26;3.45;;;1.85;;
62929;SDS011;49036;42.782;23.108;2022-10-16T14:50:52;2.88;;;2.65;;
62929;SDS011;49036;42.782;23.108;2022-10-16T14:53:17;2.80;;;2.08;;
62929;SDS011;49036;42.782;23.108;2022-10-16T14:55:43;2.35;;;1.98;;
62929;SDS011;49036;42.782;23.108;2022-10-16T14:58:16;2.20;;;2.00;;
62929;SDS011;49036;42.782;23.108;2022-10-16T15:00:43;4.10;;;1.77;;
62929;SDS011;49036;42.782;23.108;2022-10-16T15:03:09;3.40;;;2.38;;
62929;SDS011;49036;42.782;23.108;2022-10-16T15:05:34;3.53;;;1.98;;
62929;SDS011;49036;42.782;23.108;2022-10-16T15:08:00;3.08;;;2.50;;
62929;SDS011;49036;42.782;23.108;2022-10-16T15:10:26;3.72;;;2.08;;
62929;SDS011;49036;42.782;23.108;2022-10-16T15:12:53;4.00;;;2.38;;
62929;SDS011;49036;42.782;23.108;2022-10-16T15:17:48;3.78;;;2.22;;
62929;SDS011;49036;42.782;23.108;2022-10-16T15:20:22;6.90;;;2.72;;
62929;SDS011;49036;42.782;23.108;2022-10-16T15:22:51;4.03;;;2.38;;
62929;SDS011;49036;42.782;23.108;2022-10-16T15:27:44;3.85;;;2.10;;
62929;SDS011;49036;42.782;23.108;2022-10-16T15:30:10;3.47;;;2.05;;
62929;SDS011;49036;42.782;23.108;2022-10-16T15:32:36;3.92;;;2.30;;
62929;SDS011;49036;42.782;23.108;2022-10-16T15:35:01;8.57;;;2.20;;
62929;SDS011;49036;42.782;23.108;2022-10-16T15:37:27;4.55;;;1.98;;
62929;SDS011;49036;42.782;23.108;2022-10-16T15:39:53;4.07;;;2.38;;
62929;SDS011;49036;42.782;23.108;2022-10-16T15:42:18;3.53;;;2.13;;
62929;SDS011;49036;42.782;23.108;2022-10-16T15:44:44;4.07;;;2.00;;
62929;SDS011;49036;42.782;23.108;2022-10-16T15:47:09;3.85;;;2.00;;
62929;SDS011;49036;42.782;23.108;2022-10-16T15:49:34;3.60;;;2.55;;
62929;SDS011;49036;42.782;23.108;2022-10-16T15:54:25;5.22;;;2.38;;
62929;SDS011;49036;42.782;23.108;2022-10-16T15:59:16;8.07;;;3.00;;
62929;SDS011;49036;42.782;23.108;2022-10-16T16:04:07;11.82;;;4.28;;
62929;SDS011;49036;42.782;23.108;2022-10-16T16:06:32;8.18;;;4.53;;
62929;SDS011;49036;42.782;23.108;2022-10-16T16:08:58;7.72;;;4.47;;
62929;SDS011;49036;42.782;23.108;2022-10-16T16:11:24;10.07;;;5.32;;
62929;SDS011;49036;42.782;23.108;2022-10-16T16:13:50;12.68;;;3.72;;
62929;SDS011;49036;42.782;23.108;2022-10-16T16:16:16;5.32;;;3.53;;
62929;SDS011;49036;42.782;23.108;2022-10-16T16:18:42;9.80;;;2.97;;
62929;SDS011;49036;42.782;23.108;2022-10-16T16:21:09;11.85;;;2.60;;
62929;SDS011;49036;42.782;23.108;2022-10-16T16:23:37;4.00;;;2.45;;
62929;SDS011;49036;42.782;23.108;2022-10-16T16:26:24;4.95;;;2.65;;
62929;SDS011;49036;42.782;23.108;2022-10-16T16:28:59;6.20;;;2.85;;
62929;SDS011;49036;42.782;23.108;2022-10-16T16:31:25;6.75;;;2.50;;
62929;SDS011;49036;42.782;23.108;2022-10-16T16:33:52;7.10;;;2.33;;
62929;SDS011;49036;42.782;23.108;2022-10-16T16:36:18;3.58;;;2.63;;
62929;SDS011;49036;42.782;23.108;2022-10-16T16:38:44;3.78;;;3.10;;
62929;SDS011;49036;42.782;23.108;2022-10-16T16:41:11;4.00;;;2.65;;
62929;SDS011;49036;42.782;23.108;2022-10-16T16:43:37;8.05;;;4.35;;
62929;SDS011;49036;42.782;23.108;2022-10-16T16:46:03;3.92;;;2.50;;
62929;SDS011;49036;42.782;23.108;2022-10-16T16:48:28;5.85;;;2.65;;
62929;SDS011;49036;42.782;23.108;2022-10-16T16:50:54;4.88;;;3.42;;
62929;SDS011;49036;42.782;23.108;2022-10-16T16:53:19;6.75;;;3.13;;
62929;SDS011;49036;42.782;23.108;2022-10-16T16:55:45;5.72;;;3.10;;
62929;SDS011;49036;42.782;23.108;2022-10-16T16:58:10;10.88;;;5.05;;
62929;SDS011;49036;42.782;23.108;2022-10-16T17:00:36;10.10;;;4.45;;
62929;SDS011;49036;42.782;23.108;2022-10-16T17:03:01;6.13;;;3.58;;
62929;SDS011;49036;42.782;23.108;2022-10-16T17:05:27;9.25;;;2.97;;
62929;SDS011;49036;42.782;23.108;2022-10-16T17:07:52;3.28;;;2.67;;
62929;SDS011;49036;42.782;23.108;2022-10-16T17:10:18;9.82;;;2.97;;
62929;SDS011;49036;42.782;23.108;2022-10-16T17:12:43;7.50;;;3.10;;
62929;SDS011;49036;42.782;23.108;2022-10-16T17:15:09;4.55;;;2.90;;
62929;SDS011;49036;42.782;23.108;2022-10-16T17:17:35;5.90;;;3.17;;
62929;SDS011;49036;42.782;23.108;2022-10-16T17:20:00;6.82;;;3.25;;